Terminal Aerodrome Forecast
Issued by NWS Kansas City/Pleasant Hill, MO

Home | Current Version | Previous Version | Text Only | Print | Product List | Glossary On
Versions: 1 2 3 4 5 6 7 8 9 10 11 12 13 14 15 16 17 18 19 20
603
FTUS43 KEAX 211735
TAFMCI
TAF
KMCI 211735Z 2118/2218 01010KT P6SM OVC150
     FM220200 05010KT P6SM OVC050
     FM220500 06010KT 5SM -SNPL OVC025
     FM220800 06009KT 5SM -FZRAPL OVC010
     FM221400 06009KT P6SM OVC008=

USA.gov is the U.S. government's official web portal to all federal, state and local government web resources and services.